LEBL/BCN METAR and TAF weather

Enter ICAO airport designator
Station Type Date Time Source
LEBL METAR 2019/06/18 05:00 UTC NOAA

LEBL 180500Z 31005KT 9999 FEW025 17/13 Q1015 NOSIG


Station Type Date Time Source
LEBL Decoded METAR 2019/06/18 05:00 UTC NOAA

Barcelona / Aeropuerto, Spain (LEBL) 41-17N 002-04E 6M
Jun 18, 2019 - 01:00 AM EDT / 2019.06.18 0500 UTC
Wind: from the NW (310 degrees) at 6 MPH (5 KT):0
Visibility: greater than 7 mile(s):0
Sky conditions: mostly clear
Temperature: 62 F (17 C)
Dew Point: 55 F (13 C)
Relative Humidity: 77%
Pressure (altimeter): 29.97 in. Hg (1015 hPa)
ob: LEBL 180500Z 31005KT 9999 FEW025 17/13 Q1015 NOSIG
cycle: 5

Station Type Date Time Source
LEBL TAF 2019/06/17 18:27 UTC NOAA

TAF LEBL 171700Z 1718/1818 22012KT 9999 FEW025 TX25/1813Z TN17/1806Z
BECMG 1719/1722 VRB04KT
BECMG 1808/1810 22010KT

Example: see airport list